Time;durP1;ratioP1;P1;durP2;ratioP2;P2;SDS_P1;SDS_P2;PMS_P1;PMS_P2;Temp;Humidity;BMP_temperature;BMP_pressure;BME280_temperature;BME280_humidity;BME280_pressure;Samples;Min_cycle;Max_cycle;Signal;HPM_P1;HPM_P2
2021/09/26 00:02:35;;;;;;;1.40;1.15;;;22.80;58.00;;;;;;6293497;28;20046;-72
2021/09/26 00:05:36;;;;;;;1.15;1.05;;;22.80;58.00;;;;;;6292944;28;20524;-72
2021/09/26 00:08:37;;;;;;;1.45;1.30;;;22.80;58.00;;;;;;6292628;28;20067;-71
2021/09/26 00:11:40;;;;;;;1.35;0.95;;;22.80;58.00;;;;;;6293220;28;20067;-72
2021/09/26 00:14:41;;;;;;;1.95;1.40;;;22.80;58.00;;;;;;6284225;28;20033;-72
2021/09/26 00:17:42;;;;;;;1.63;1.30;;;22.80;58.00;;;;;;6272607;28;20491;-72
2021/09/26 00:20:42;;;;;;;1.23;1.00;;;22.80;58.00;;;;;;6293340;28;20050;-72
2021/09/26 00:23:43;;;;;;;1.48;1.20;;;22.80;58.00;;;;;;6292541;28;20427;-72
2021/09/26 00:26:44;;;;;;;1.27;1.08;;;22.80;57.90;;;;;;6292967;28;20032;-72
2021/09/26 00:29:45;;;;;;;1.88;1.17;;;22.80;57.90;;;;;;6292313;28;20491;-72
2021/09/26 00:32:46;;;;;;;1.95;1.58;;;22.80;58.20;;;;;;6293171;28;20032;-72
2021/09/26 00:35:47;;;;;;;1.30;1.00;;;22.80;58.00;;;;;;6292547;28;20025;-72
2021/09/26 00:38:48;;;;;;;1.20;1.10;;;22.80;58.00;;;;;;6292469;28;20035;-72
2021/09/26 00:41:49;;;;;;;1.23;1.10;;;22.80;57.90;;;;;;6292338;28;20032;-72
2021/09/26 00:44:50;;;;;;;1.63;1.48;;;22.80;58.00;;;;;;6292168;28;20067;-72
2021/09/26 00:47:51;;;;;;;1.08;0.98;;;22.80;58.00;;;;;;6292284;28;20036;-71
2021/09/26 00:50:51;;;;;;;1.00;0.90;;;22.80;57.90;;;;;;6292450;28;20146;-72
2021/09/26 00:53:52;;;;;;;3.22;1.05;;;22.80;57.90;;;;;;6292053;28;20036;-72
2021/09/26 00:56:52;;;;;;;1.48;1.20;;;22.80;57.90;;;;;;6292115;28;20048;-72
2021/09/26 00:59:55;;;;;;;1.10;1.00;;;22.80;57.90;;;;;;6291836;28;20557;-72
2021/09/26 01:02:56;;;;;;;2.05;1.05;;;22.80;57.90;;;;;;6292097;28;20028;-72
2021/09/26 01:06:17;;;;;;;1.10;1.00;;;22.80;57.90;;;;;;6291716;28;20395;-72
2021/09/26 01:09:40;;;;;;;1.20;1.05;;;22.80;57.90;;;;;;6291361;28;20128;-72
2021/09/26 01:12:52;;;;;;;1.15;1.05;;;22.80;57.90;;;;;;6291363;28;20492;-72
2021/09/26 01:16:11;;;;;;;1.30;1.20;;;22.80;57.90;;;;;;6272531;28;20054;-72
2021/09/26 01:19:27;;;;;;;1.42;1.05;;;22.80;57.90;;;;;;6272526;28;20311;-72
2021/09/26 01:22:56;;;;;;;1.38;1.10;;;22.80;57.90;;;;;;6290323;28;20031;-71
2021/09/26 01:26:23;;;;;;;1.23;1.02;;;22.80;57.90;;;;;;6291021;28;20112;-72
2021/09/26 01:29:44;;;;;;;1.00;0.90;;;22.80;57.90;;;;;;6291298;28;20025;-71
2021/09/26 01:33:00;;;;;;;1.17;1.05;;;22.80;57.90;;;;;;6290898;28;20379;-72
2021/09/26 01:36:08;;;;;;;1.48;1.00;;;22.80;57.90;;;;;;6291130;28;20055;-72
2021/09/26 01:39:31;;;;;;;1.10;1.00;;;22.80;57.90;;;;;;6290697;28;20013;-72
2021/09/26 01:42:47;;;;;;;1.00;0.90;;;22.80;57.90;;;;;;6291592;28;20020;-72
2021/09/26 01:45:53;;;;;;;1.15;1.05;;;22.80;57.90;;;;;;6290605;28;20497;-72
2021/09/26 01:49:02;;;;;;;1.38;1.15;;;22.80;57.90;;;;;;6290669;28;20035;-71
2021/09/26 01:52:09;;;;;;;1.17;1.00;;;22.80;57.90;;;;;;6291096;28;20025;-71
2021/09/26 01:55:11;;;;;;;1.30;1.00;;;22.80;57.90;;;;;;6290213;28;20472;-72
2021/09/26 01:58:16;;;;;;;0.85;0.85;;;22.80;58.00;;;;;;6290814;28;20029;-72
2021/09/26 02:01:17;;;;;;;0.80;0.80;;;22.80;57.90;;;;;;6290130;28;20359;-72
2021/09/26 02:04:20;;;;;;;1.92;1.27;;;22.80;57.90;;;;;;6290060;28;20021;-72
2021/09/26 02:07:21;;;;;;;1.10;1.00;;;22.80;58.60;;;;;;6290238;28;20124;-72
2021/09/26 02:10:24;;;;;;;1.10;1.00;;;22.80;57.90;;;;;;6290293;28;20079;-72
2021/09/26 02:13:26;;;;;;;1.13;1.00;;;22.80;57.90;;;;;;6290855;28;20028;-72
2021/09/26 02:16:28;;;;;;;1.23;1.02;;;22.80;57.90;;;;;;6281769;28;20027;-72
2021/09/26 02:19:29;;;;;;;1.30;1.00;;;22.80;57.90;;;;;;6290882;28;20180;-72
2021/09/26 02:22:32;;;;;;;1.30;1.20;;;22.80;57.90;;;;;;6289850;28;20066;-72
2021/09/26 02:25:33;;;;;;;1.20;1.08;;;22.80;57.90;;;;;;6289703;28;20434;-72
2021/09/26 02:28:34;;;;;;;1.15;1.00;;;22.80;57.90;;;;;;6290001;28;20395;-72
2021/09/26 02:31:37;;;;;;;1.35;1.05;;;22.80;57.90;;;;;;6290075;28;20028;-72
2021/09/26 02:34:37;;;;;;;1.10;1.00;;;22.80;57.90;;;;;;6290137;28;20369;-72
2021/09/26 02:37:38;;;;;;;1.67;1.25;;;22.80;57.90;;;;;;6290230;28;20040;-72
2021/09/26 02:40:43;;;;;;;1.08;0.98;;;22.80;57.80;;;;;;6290402;28;20397;-72
2021/09/26 02:44:01;;;;;;;1.48;1.15;;;22.80;57.90;;;;;;6290399;28;20028;-71
2021/09/26 02:47:11;;;;;;;1.20;1.10;;;22.80;57.80;;;;;;6290124;28;20049;-71
2021/09/26 02:50:11;;;;;;;1.60;0.98;;;22.80;57.90;;;;;;6290278;28;20039;-72
2021/09/26 02:53:13;;;;;;;1.20;1.10;;;22.80;57.90;;;;;;6289895;28;20032;-72
2021/09/26 02:56:14;;;;;;;1.17;1.08;;;22.80;57.90;;;;;;6289887;28;20055;-72
2021/09/26 02:59:15;;;;;;;1.35;1.10;;;22.80;58.60;;;;;;6290271;28;20024;-72
2021/09/26 03:02:15;;;;;;;1.60;1.17;;;22.80;57.90;;;;;;6289789;28;20052;-71
2021/09/26 03:05:16;;;;;;;0.90;0.80;;;22.80;57.80;;;;;;6289924;28;20033;-72
2021/09/26 03:08:18;;;;;;;1.85;1.33;;;22.80;58.50;;;;;;6289303;28;20039;-72
2021/09/26 03:11:18;;;;;;;1.30;1.00;;;22.80;57.80;;;;;;6289665;28;20391;-72
2021/09/26 03:14:19;;;;;;;1.02;0.90;;;22.80;57.80;;;;;;6283517;28;20084;-72
2021/09/26 03:17:20;;;;;;;1.10;1.00;;;22.80;57.90;;;;;;6276181;28;20074;-72
2021/09/26 03:20:20;;;;;;;1.30;1.10;;;22.80;57.80;;;;;;6289722;28;20029;-72
2021/09/26 03:23:21;;;;;;;1.65;1.33;;;22.80;57.90;;;;;;6289753;28;20029;-72
2021/09/26 03:26:22;;;;;;;1.67;1.27;;;22.80;57.90;;;;;;6289198;28;20483;-72
2021/09/26 03:29:22;;;;;;;1.30;1.10;;;22.80;57.90;;;;;;6289548;28;20096;-72
2021/09/26 03:32:23;;;;;;;1.13;1.00;;;22.80;57.90;;;;;;6289733;28;20467;-72
2021/09/26 03:35:25;;;;;;;1.10;1.00;;;22.80;57.90;;;;;;6293410;28;20424;-72
2021/09/26 03:38:25;;;;;;;1.20;1.00;;;22.80;57.90;;;;;;6294050;28;20025;-72
2021/09/26 03:41:26;;;;;;;1.10;1.00;;;22.80;57.90;;;;;;6294741;28;20538;-72
2021/09/26 03:44:27;;;;;;;1.02;0.90;;;22.80;57.80;;;;;;6294059;28;20423;-72
2021/09/26 03:47:27;;;;;;;1.20;1.00;;;22.80;57.90;;;;;;6293760;28;20068;-72
2021/09/26 03:50:28;;;;;;;0.93;0.80;;;22.80;57.90;;;;;;6294009;28;20031;-72
2021/09/26 03:53:28;;;;;;;1.00;0.90;;;22.80;57.80;;;;;;6293846;28;20031;-71
2021/09/26 03:56:29;;;;;;;0.88;0.88;;;22.80;58.50;;;;;;6293295;28;20050;-72
2021/09/26 04:03:26;;;;;;;;;;;22.80;57.80;;;;;;6294229;28;20024;-72
2021/09/26 04:06:27;;;;;;;1.33;0.98;;;22.80;57.80;;;;;;6293097;28;19935;-72
2021/09/26 04:09:27;;;;;;;2.88;0.98;;;22.80;57.80;;;;;;6293041;28;20626;-72
2021/09/26 04:12:28;;;;;;;1.55;1.10;;;22.80;57.80;;;;;;6293142;28;20399;-71
2021/09/26 04:15:28;;;;;;;0.93;0.90;;;22.80;57.80;;;;;;6277491;28;20443;-72
2021/09/26 04:18:29;;;;;;;1.73;1.20;;;22.80;57.80;;;;;;6276614;28;20025;-72
2021/09/26 04:21:29;;;;;;;1.20;1.10;;;22.80;57.80;;;;;;6293035;28;20035;-72
2021/09/26 04:24:30;;;;;;;0.90;0.90;;;22.80;57.80;;;;;;6292745;28;20029;-72
2021/09/26 04:27:31;;;;;;;1.10;1.00;;;22.80;57.80;;;;;;6292402;28;20036;-72
2021/09/26 04:30:33;;;;;;;1.23;0.90;;;22.80;57.80;;;;;;6292640;28;20427;-72
2021/09/26 04:33:33;;;;;;;1.55;1.08;;;22.80;58.50;;;;;;6292861;28;20031;-72
2021/09/26 04:36:34;;;;;;;0.80;0.80;;;22.80;57.80;;;;;;6292724;28;20522;-72
2021/09/26 04:39:34;;;;;;;1.00;0.90;;;22.80;57.80;;;;;;6292422;28;20021;-72
2021/09/26 04:42:35;;;;;;;0.88;0.85;;;22.80;57.90;;;;;;6292697;28;20027;-72
2021/09/26 04:45:35;;;;;;;1.60;1.30;;;22.80;57.90;;;;;;6291045;28;20436;-72
2021/09/26 04:48:36;;;;;;;1.23;1.02;;;22.80;57.80;;;;;;6292332;28;20054;-72
2021/09/26 04:51:37;;;;;;;1.42;1.17;;;22.80;57.90;;;;;;6292224;28;20044;-72
2021/09/26 04:54:39;;;;;;;1.00;0.90;;;22.80;57.90;;;;;;6292065;28;20028;-72
2021/09/26 04:57:39;;;;;;;1.10;0.98;;;22.80;57.90;;;;;;6292301;28;20098;-72
2021/09/26 05:00:40;;;;;;;0.80;0.77;;;22.80;57.90;;;;;;6291905;28;20309;-71
2021/09/26 05:03:40;;;;;;;1.02;0.93;;;22.80;57.90;;;;;;6269787;28;20124;-71
2021/09/26 05:06:41;;;;;;;1.10;1.00;;;22.80;57.90;;;;;;6291873;28;20532;-72
2021/09/26 05:09:41;;;;;;;1.60;1.02;;;22.80;57.90;;;;;;6291824;28;20064;-72
2021/09/26 05:12:42;;;;;;;1.02;0.90;;;22.80;57.90;;;;;;6292027;28;20228;-72
2021/09/26 05:15:42;;;;;;;1.02;0.90;;;22.80;57.90;;;;;;6289685;28;20028;-72
2021/09/26 05:18:43;;;;;;;1.10;0.90;;;22.80;57.90;;;;;;6291742;28;20020;-71
2021/09/26 05:21:44;;;;;;;1.10;1.00;;;22.80;57.80;;;;;;6291352;28;20423;-72
2021/09/26 05:24:45;;;;;;;1.38;1.10;;;22.80;57.90;;;;;;6291205;28;20024;-72
2021/09/26 05:27:46;;;;;;;1.98;1.13;;;22.80;57.90;;;;;;6291296;28;20071;-72
2021/09/26 05:30:47;;;;;;;0.90;0.80;;;22.80;57.80;;;;;;6290586;28;20043;-72
2021/09/26 05:33:48;;;;;;;1.73;1.10;;;22.80;57.90;;;;;;6291345;28;20031;-72
2021/09/26 05:36:49;;;;;;;1.00;0.90;;;22.80;57.80;;;;;;6290863;28;20024;-72
2021/09/26 05:39:49;;;;;;;1.20;1.00;;;22.80;57.80;;;;;;6291692;28;20029;-72
2021/09/26 05:42:50;;;;;;;1.17;0.93;;;22.80;57.90;;;;;;6291123;28;20047;-72
2021/09/26 05:45:51;;;;;;;1.00;0.90;;;22.80;57.90;;;;;;6290655;28;20028;-72
2021/09/26 05:48:51;;;;;;;1.08;0.98;;;22.80;57.80;;;;;;6290892;28;20462;-72
2021/09/26 05:51:52;;;;;;;1.83;1.00;;;22.80;57.90;;;;;;6291071;28;20040;-71
2021/09/26 05:54:52;;;;;;;1.00;0.90;;;22.80;57.80;;;;;;6290382;28;20116;-72
2021/09/26 05:57:53;;;;;;;0.73;0.70;;;22.80;57.80;;;;;;6290450;28;20389;-72
2021/09/26 06:00:53;;;;;;;1.00;0.90;;;22.80;57.80;;;;;;6290966;28;20365;-72
2021/09/26 06:03:54;;;;;;;0.80;0.80;;;22.80;57.90;;;;;;6290874;28;20020;-71
2021/09/26 06:06:54;;;;;;;1.08;0.90;;;22.80;57.80;;;;;;6290120;28;20101;-72
2021/09/26 06:09:55;;;;;;;1.20;1.00;;;22.80;57.80;;;;;;6290125;28;20057;-72
2021/09/26 06:12:55;;;;;;;1.17;0.88;;;22.80;57.80;;;;;;6290502;28;20032;-72
2021/09/26 06:15:56;;;;;;;1.48;1.05;;;22.80;57.90;;;;;;6278859;28;20115;-72
2021/09/26 06:18:57;;;;;;;0.88;0.85;;;22.80;57.80;;;;;;6290917;28;20060;-72
2021/09/26 06:21:57;;;;;;;1.00;0.82;;;22.80;57.80;;;;;;6290493;28;20536;-72
2021/09/26 06:24:58;;;;;;;1.13;0.80;;;22.80;57.80;;;;;;6290286;28;20027;-72
2021/09/26 06:27:59;;;;;;;1.50;1.05;;;22.80;57.90;;;;;;6290764;28;20123;-72
2021/09/26 06:31:00;;;;;;;1.48;1.02;;;22.80;57.80;;;;;;6290675;28;20023;-72
2021/09/26 06:34:00;;;;;;;0.68;0.57;;;22.80;57.80;;;;;;6290179;28;20111;-72
2021/09/26 06:37:01;;;;;;;1.13;1.02;;;22.80;58.30;;;;;;6289787;28;20031;-72
2021/09/26 06:40:02;;;;;;;1.35;0.80;;;22.80;57.90;;;;;;6290395;28;20024;-72
2021/09/26 06:43:03;;;;;;;0.88;0.80;;;22.80;57.90;;;;;;6289658;28;20024;-72
2021/09/26 06:46:03;;;;;;;1.00;0.90;;;22.80;57.90;;;;;;6289774;28;20032;-72
2021/09/26 06:49:04;;;;;;;1.23;0.95;;;22.80;57.90;;;;;;6289866;28;20137;-71
2021/09/26 06:52:05;;;;;;;1.33;1.00;;;22.80;58.60;;;;;;6289884;28;20032;-72
2021/09/26 06:55:06;;;;;;;0.70;0.70;;;22.80;57.80;;;;;;6289775;28;20024;-72
2021/09/26 06:58:07;;;;;;;1.05;0.90;;;22.80;57.80;;;;;;6290138;28;20460;-72
2021/09/26 07:01:08;;;;;;;0.77;0.77;;;22.80;57.90;;;;;;6289710;28;20028;-72
2021/09/26 07:04:08;;;;;;;1.40;1.00;;;22.80;57.90;;;;;;6289994;28;20134;-72
2021/09/26 07:07:09;;;;;;;0.80;0.80;;;22.80;57.90;;;;;;6289861;28;20037;-72
2021/09/26 07:10:10;;;;;;;1.00;0.88;;;22.80;57.80;;;;;;6293743;28;20060;-72
2021/09/26 07:13:11;;;;;;;1.10;1.00;;;22.80;57.90;;;;;;6294699;28;20028;-72
2021/09/26 07:16:11;;;;;;;0.85;0.75;;;22.80;57.80;;;;;;6287219;28;20032;-72
2021/09/26 07:19:12;;;;;;;0.80;0.70;;;22.80;57.90;;;;;;6294289;28;20028;-72
2021/09/26 07:22:13;;;;;;;1.40;1.30;;;22.80;57.80;;;;;;6294743;28;20392;-72
2021/09/26 07:25:14;;;;;;;0.90;0.80;;;22.80;57.80;;;;;;6294041;28;20067;-72
2021/09/26 07:28:14;;;;;;;0.68;0.60;;;22.80;57.80;;;;;;6294372;28;20484;-72
2021/09/26 07:31:16;;;;;;;1.08;0.77;;;22.80;57.80;;;;;;6295013;28;20024;-72
2021/09/26 07:34:16;;;;;;;1.10;0.77;;;22.80;57.80;;;;;;6293737;28;20499;-72
2021/09/26 07:37:17;;;;;;;1.00;0.90;;;22.80;57.90;;;;;;6293226;28;20081;-72
2021/09/26 07:40:18;;;;;;;0.80;0.57;;;22.80;57.80;;;;;;6294202;28;20031;-72
2021/09/26 07:43:19;;;;;;;0.73;0.70;;;22.80;57.80;;;;;;6293818;28;20024;-72
2021/09/26 07:46:20;;;;;;;0.82;0.82;;;22.80;57.80;;;;;;6293690;28;20068;-72
2021/09/26 07:49:21;;;;;;;0.68;0.65;;;22.80;57.80;;;;;;6293856;28;20417;-72
2021/09/26 07:52:24;;;;;;;1.13;0.85;;;22.80;57.80;;;;;;6293633;28;20123;-73
2021/09/26 07:55:25;;;;;;;0.88;0.68;;;22.80;57.80;;;;;;6293548;28;20021;-72
2021/09/26 07:58:29;;;;;;;1.00;0.90;;;22.80;57.80;;;;;;6293197;28;20108;-72
2021/09/26 08:01:30;;;;;;;0.88;0.80;;;22.80;57.90;;;;;;6293690;28;20031;-72
2021/09/26 08:04:31;;;;;;;1.17;1.08;;;22.80;57.90;;;;;;6292831;28;20021;-72
2021/09/26 08:07:33;;;;;;;0.70;0.70;;;22.80;57.80;;;;;;6292986;28;20040;-72
2021/09/26 08:10:33;;;;;;;0.88;0.77;;;22.80;57.90;;;;;;6293225;28;20059;-72
2021/09/26 08:13:34;;;;;;;0.80;0.80;;;22.80;57.80;;;;;;6293207;28;20594;-72
2021/09/26 08:16:35;;;;;;;0.70;0.70;;;22.80;57.90;;;;;;6268244;28;20036;-72
2021/09/26 08:19:36;;;;;;;0.70;0.70;;;22.80;57.90;;;;;;6284710;28;20031;-72
2021/09/26 08:22:36;;;;;;;1.00;0.85;;;22.80;57.90;;;;;;6293261;28;20066;-72
2021/09/26 08:25:37;;;;;;;0.70;0.60;;;22.80;57.80;;;;;;6292511;28;20033;-72
2021/09/26 08:28:37;;;;;;;0.88;0.88;;;22.80;57.80;;;;;;6292338;28;20043;-72
2021/09/26 08:31:38;;;;;;;0.63;0.63;;;22.80;57.80;;;;;;6292897;28;20468;-72
2021/09/26 08:34:39;;;;;;;0.65;0.65;;;22.80;57.80;;;;;;6292711;28;20028;-72
2021/09/26 08:37:40;;;;;;;0.77;0.70;;;22.80;58.50;;;;;;6292738;28;20029;-72
2021/09/26 08:40:40;;;;;;;1.33;0.60;;;22.80;57.90;;;;;;6292560;28;20111;-72
2021/09/26 08:43:41;;;;;;;0.95;0.60;;;22.80;57.80;;;;;;6292488;28;20017;-72
2021/09/26 08:46:42;;;;;;;0.60;0.60;;;22.80;57.90;;;;;;6292228;28;20131;-71
2021/09/26 08:49:43;;;;;;;0.60;0.60;;;22.80;57.80;;;;;;6292368;28;20058;-71
2021/09/26 08:52:45;;;;;;;0.80;0.80;;;22.80;57.80;;;;;;6292363;28;20119;-72
2021/09/26 08:55:46;;;;;;;0.80;0.80;;;22.80;57.80;;;;;;6292249;28;20099;-72
2021/09/26 08:58:48;;;;;;;0.80;0.80;;;22.80;57.80;;;;;;6292159;28;20523;-72
2021/09/26 09:01:48;;;;;;;1.25;0.90;;;22.80;57.80;;;;;;6292257;28;20349;-72
2021/09/26 09:04:49;;;;;;;0.85;0.70;;;22.80;57.80;;;;;;6291554;28;20027;-71
2021/09/26 09:08:14;;;;;;;1.00;0.82;;;22.80;57.80;;;;;;6291898;28;20028;-72
2021/09/26 09:11:22;;;;;;;1.23;0.80;;;22.80;57.80;;;;;;6291837;28;20036;-72
2021/09/26 09:14:22;;;;;;;0.80;0.80;;;22.80;57.80;;;;;;6286175;28;20021;-72
2021/09/26 09:17:28;;;;;;;0.70;0.63;;;22.80;57.80;;;;;;6291748;28;20399;-71
2021/09/26 09:20:31;;;;;;;0.90;0.90;;;22.80;57.80;;;;;;6291622;28;20111;-72
2021/09/26 09:23:31;;;;;;;0.80;0.50;;;22.80;57.80;;;;;;6291860;28;20116;-72
2021/09/26 09:26:34;;;;;;;0.80;0.75;;;22.80;57.80;;;;;;6291072;28;20043;-72
2021/09/26 09:29:37;;;;;;;0.77;0.70;;;22.80;57.80;;;;;;6291142;28;20566;-72
2021/09/26 09:32:52;;;;;;;0.82;0.70;;;22.80;57.80;;;;;;6290964;28;20035;-72
2021/09/26 09:35:54;;;;;;;0.70;0.60;;;22.80;57.80;;;;;;6290999;28;20028;-71
2021/09/26 09:38:58;;;;;;;1.00;0.85;;;22.80;57.80;;;;;;6291464;28;20024;-72
2021/09/26 09:41:58;;;;;;;0.90;0.73;;;22.80;57.80;;;;;;6290892;28;20407;-72
2021/09/26 09:45:32;;;;;;;0.70;0.60;;;22.80;57.80;;;;;;6291151;28;20043;-72
2021/09/26 09:48:33;;;;;;;0.80;0.75;;;22.80;57.80;;;;;;6290623;28;20059;-72
2021/09/26 09:51:33;;;;;;;1.33;0.85;;;22.80;57.80;;;;;;6290621;28;20025;-72
2021/09/26 09:54:37;;;;;;;0.93;0.68;;;22.80;57.80;;;;;;6291582;28;20024;-71
2021/09/26 09:57:37;;;;;;;0.90;0.80;;;22.80;57.80;;;;;;6290529;28;20138;-72
2021/09/26 10:00:49;;;;;;;0.73;0.70;;;22.80;57.80;;;;;;6290980;28;20029;-72
2021/09/26 10:03:55;;;;;;;0.70;0.70;;;22.80;57.80;;;;;;6291549;28;20094;-72
2021/09/26 10:06:55;;;;;;;1.42;0.70;;;22.90;57.90;;;;;;6290082;28;20101;-72
2021/09/26 10:09:57;;;;;;;0.60;0.60;;;22.90;57.90;;;;;;6290793;28;20064;-72
2021/09/26 10:13:11;;;;;;;1.05;0.80;;;22.90;57.90;;;;;;6290714;28;20120;-72
2021/09/26 10:16:12;;;;;;;0.73;0.73;;;22.80;57.80;;;;;;6275075;28;20021;-72
2021/09/26 10:19:13;;;;;;;1.60;0.77;;;22.90;57.90;;;;;;6290561;28;20039;-72
2021/09/26 10:22:17;;;;;;;1.27;0.82;;;22.90;58.00;;;;;;6290367;28;20070;-72
2021/09/26 10:25:19;;;;;;;0.80;0.80;;;22.80;57.80;;;;;;6290341;28;20021;-72
2021/09/26 10:28:23;;;;;;;1.15;0.80;;;22.90;57.90;;;;;;6290174;28;20067;-72
2021/09/26 10:31:28;;;;;;;0.88;0.77;;;22.90;57.90;;;;;;6289927;28;20025;-72
2021/09/26 10:34:30;;;;;;;0.98;0.77;;;22.90;57.90;;;;;;6290562;28;20035;-72
2021/09/26 10:37:30;;;;;;;0.80;0.77;;;22.90;57.90;;;;;;6290369;28;20013;-72
2021/09/26 10:40:31;;;;;;;1.02;0.80;;;22.90;57.90;;;;;;6290453;28;20033;-72
2021/09/26 10:43:32;;;;;;;0.80;0.80;;;22.80;57.80;;;;;;6289168;28;20040;-72
2021/09/26 10:46:33;;;;;;;0.65;0.65;;;22.80;57.80;;;;;;6289513;28;20287;-72
2021/09/26 10:49:41;;;;;;;0.80;0.70;;;22.90;57.90;;;;;;6290553;28;20051;-72
2021/09/26 10:52:43;;;;;;;2.25;0.70;;;22.90;57.90;;;;;;6290207;28;20704;-72
2021/09/26 10:55:44;;;;;;;0.80;0.80;;;22.90;58.60;;;;;;6290423;28;20021;-72
2021/09/26 10:58:56;;;;;;;0.68;0.65;;;22.90;57.90;;;;;;6290203;28;20047;-72
2021/09/26 11:01:56;;;;;;;0.70;0.50;;;22.80;57.80;;;;;;6290856;28;20040;-72
2021/09/26 11:05:00;;;;;;;1.42;0.98;;;22.90;57.90;;;;;;6289578;28;20043;-72
2021/09/26 11:08:03;;;;;;;0.80;0.70;;;22.90;57.90;;;;;;6289859;28;20041;-72
2021/09/26 11:11:04;;;;;;;0.93;0.77;;;22.90;57.90;;;;;;6289622;28;20106;-72
2021/09/26 11:14:07;;;;;;;0.60;0.60;;;22.90;57.90;;;;;;6285888;28;20025;-72
2021/09/26 11:17:07;;;;;;;0.70;0.70;;;22.90;57.90;;;;;;6267050;28;20032;-72
2021/09/26 11:20:10;;;;;;;0.60;0.60;;;22.90;57.90;;;;;;6289943;28;20033;-72
2021/09/26 11:23:19;;;;;;;0.60;0.60;;;22.90;57.90;;;;;;6290012;28;20492;-72
2021/09/26 11:26:20;;;;;;;0.95;0.60;;;22.90;57.90;;;;;;6289108;28;20032;-72
2021/09/26 11:29:20;;;;;;;0.50;0.50;;;22.90;57.90;;;;;;6289793;28;20377;-72
2021/09/26 11:32:29;;;;;;;0.77;0.70;;;22.90;57.90;;;;;;6289289;28;20103;-71
2021/09/26 11:35:31;;;;;;;0.70;0.60;;;22.90;57.90;;;;;;6289527;28;20032;-71
2021/09/26 11:38:41;;;;;;;0.70;0.70;;;22.90;57.90;;;;;;6289573;28;20043;-72
2021/09/26 11:41:41;;;;;;;0.70;0.65;;;22.90;57.90;;;;;;6289751;28;20024;-72
2021/09/26 11:44:49;;;;;;;0.60;0.60;;;22.90;57.90;;;;;;6289401;28;20028;-72
2021/09/26 11:48:16;;;;;;;0.70;0.55;;;22.90;57.90;;;;;;6289301;28;20047;-72
2021/09/26 11:51:17;;;;;;;0.63;0.60;;;22.90;57.90;;;;;;6288327;28;20400;-72
2021/09/26 11:54:18;;;;;;;0.85;0.70;;;22.90;57.90;;;;;;6289776;28;20443;-72
2021/09/26 11:57:22;;;;;;;0.50;0.50;;;22.90;57.90;;;;;;6293814;28;20025;-72
2021/09/26 12:00:34;;;;;;;0.93;0.60;;;22.90;57.90;;;;;;6293720;28;20071;-72
2021/09/26 12:03:36;;;;;;;0.60;0.60;;;22.90;57.90;;;;;;6293008;28;20056;-72
2021/09/26 12:06:38;;;;;;;3.13;0.60;;;22.90;57.90;;;;;;6293273;28;20035;-72
2021/09/26 12:09:48;;;;;;;0.80;0.57;;;22.90;57.90;;;;;;6293042;28;20518;-72
2021/09/26 12:12:48;;;;;;;0.60;0.55;;;22.90;58.00;;;;;;6293508;28;20035;-72
2021/09/26 12:15:49;;;;;;;0.68;0.60;;;22.90;58.00;;;;;;6274521;28;20025;-72
2021/09/26 12:18:55;;;;;;;0.50;0.50;;;22.90;58.00;;;;;;6272612;28;20024;-72
2021/09/26 12:22:02;;;;;;;0.63;0.60;;;22.90;58.00;;;;;;6293521;28;20392;-72
2021/09/26 12:25:14;;;;;;;0.95;0.70;;;22.90;57.90;;;;;;6292426;28;20110;-71
2021/09/26 12:28:21;;;;;;;0.60;0.60;;;22.90;58.00;;;;;;6273931;28;20400;-72
2021/09/26 12:31:29;;;;;;;0.60;0.60;;;22.90;57.90;;;;;;6286026;28;20020;-72
2021/09/26 12:34:37;;;;;;;0.90;0.70;;;22.90;58.00;;;;;;6283221;28;20111;-72
2021/09/26 12:37:48;;;;;;;1.02;0.63;;;22.90;58.00;;;;;;6267744;28;20029;-71
2021/09/26 12:40:53;;;;;;;0.65;0.65;;;22.90;58.00;;;;;;6290256;28;20070;-71
2021/09/26 12:43:53;;;;;;;;;;;22.90;58.00;;;;;;6291459;28;20095;-71
2021/09/26 12:46:54;;;;;;;1.40;0.80;;;22.90;58.00;;;;;;6293444;28;19917;-71
2021/09/26 12:49:55;;;;;;;0.90;0.70;;;22.90;58.00;;;;;;6293780;28;20028;-72
2021/09/26 12:52:57;;;;;;;0.50;0.50;;;22.90;58.00;;;;;;6281386;28;20032;-71
2021/09/26 12:55:59;;;;;;;1.77;0.80;;;22.90;58.10;;;;;;6290539;28;20438;-71
2021/09/26 12:59:31;;;;;;;0.65;0.60;;;22.90;58.00;;;;;;6315538;28;20028;-72
2021/09/26 13:02:38;;;;;;;1.75;1.05;;;22.90;58.00;;;;;;6289422;28;20036;-72
2021/09/26 13:05:43;;;;;;;0.70;0.70;;;22.90;58.00;;;;;;6288166;28;20032;-72
2021/09/26 13:08:43;;;;;;;1.15;0.70;;;22.90;58.70;;;;;;6289186;28;20091;-71
2021/09/26 13:11:45;;;;;;;0.98;0.82;;;22.90;58.00;;;;;;6290128;28;20020;-72
2021/09/26 13:15:04;;;;;;;5.53;0.90;;;22.90;58.00;;;;;;6287532;28;20040;-71
2021/09/26 13:18:31;;;;;;;0.88;0.85;;;22.90;58.00;;;;;;6265393;28;20079;-72
2021/09/26 13:21:35;;;;;;;2.25;1.20;;;22.90;58.00;;;;;;6279972;28;20036;-72
2021/09/26 13:24:41;;;;;;;1.50;0.90;;;22.90;58.00;;;;;;6284332;28;20036;-72
2021/09/26 13:28:06;;;;;;;1.10;0.90;;;22.90;58.00;;;;;;6288747;28;20392;-72
2021/09/26 13:31:25;;;;;;;3.33;1.10;;;22.90;58.00;;;;;;6285292;28;20128;-72
2021/09/26 13:34:32;;;;;;;1.10;1.00;;;22.90;58.10;;;;;;6290824;28;20025;-73
2021/09/26 13:37:33;;;;;;;1.90;1.00;;;22.90;58.00;;;;;;6286265;28;20577;-72
2021/09/26 13:40:37;;;;;;;0.95;0.82;;;22.90;58.10;;;;;;6287745;28;20044;-72
2021/09/26 13:43:42;;;;;;;1.50;1.20;;;22.90;58.10;;;;;;6288735;28;20036;-72
2021/09/26 13:46:42;;;;;;;1.45;0.90;;;22.90;58.10;;;;;;6286309;28;20040;-72
2021/09/26 13:49:43;;;;;;;1.00;0.90;;;22.90;58.10;;;;;;6278427;28;20487;-72
2021/09/26 13:52:43;;;;;;;1.20;1.00;;;22.90;58.10;;;;;;6287983;28;20029;-72
2021/09/26 13:55:44;;;;;;;1.52;1.10;;;22.90;58.10;;;;;;6289960;28;20024;-72
2021/09/26 13:58:45;;;;;;;1.15;0.85;;;22.90;58.20;;;;;;6280676;28;20040;-72
2021/09/26 14:01:45;;;;;;;1.85;0.95;;;22.90;58.20;;;;;;6283060;28;20100;-72
2021/09/26 14:04:46;;;;;;;1.70;0.90;;;22.90;58.10;;;;;;6287703;28;20090;-70
2021/09/26 14:07:47;;;;;;;1.17;0.90;;;22.90;58.10;;;;;;6287980;28;20028;-72
2021/09/26 14:10:51;;;;;;;0.93;0.80;;;22.90;58.20;;;;;;6288330;28;20090;-72
2021/09/26 14:13:52;;;;;;;1.48;0.90;;;22.90;58.20;;;;;;6286578;28;20779;-70
2021/09/26 14:16:52;;;;;;;1.27;1.00;;;22.90;58.20;;;;;;6271097;28;20074;-72
2021/09/26 14:19:53;;;;;;;3.08;1.00;;;22.90;58.20;;;;;;6273552;28;20307;-71
2021/09/26 14:22:54;;;;;;;1.00;0.90;;;22.90;58.20;;;;;;6285349;28;20031;-72
2021/09/26 14:25:55;;;;;;;1.58;1.00;;;22.90;58.20;;;;;;6283546;28;20044;-72
2021/09/26 14:28:59;;;;;;;1.85;1.27;;;22.90;58.20;;;;;;6262948;28;20040;-72
2021/09/26 14:31:59;;;;;;;1.45;1.00;;;22.90;58.20;;;;;;6283577;28;20028;-72
2021/09/26 14:35:01;;;;;;;2.55;1.30;;;22.90;58.70;;;;;;6287657;28;20047;-72
2021/09/26 14:38:03;;;;;;;0.98;0.88;;;22.90;58.20;;;;;;6281515;28;20111;-72
2021/09/26 14:41:03;;;;;;;3.20;1.10;;;22.90;58.20;;;;;;6287180;28;20032;-72
2021/09/26 14:44:04;;;;;;;1.52;1.00;;;22.90;58.20;;;;;;6287111;28;20017;-72
2021/09/26 14:47:05;;;;;;;6.07;1.38;;;22.90;58.20;;;;;;6281756;28;20111;-72
2021/09/26 14:50:07;;;;;;;5.65;1.10;;;22.90;58.20;;;;;;6287985;28;20503;-72
2021/09/26 14:53:12;;;;;;;2.78;1.00;;;22.90;58.20;;;;;;6287567;28;20025;-72
2021/09/26 14:56:15;;;;;;;3.10;0.80;;;22.90;58.20;;;;;;6287693;28;20054;-72
2021/09/26 14:59:18;;;;;;;4.18;1.17;;;22.90;58.20;;;;;;6286420;28;20036;-72
2021/09/26 15:02:18;;;;;;;4.85;1.35;;;22.90;58.20;;;;;;6287597;28;20495;-72
2021/09/26 15:05:20;;;;;;;7.38;1.23;;;22.90;58.30;;;;;;6286884;28;20029;-72
2021/09/26 15:08:21;;;;;;;8.38;1.52;;;22.90;58.20;;;;;;6280008;28;20059;-73
2021/09/26 15:11:22;;;;;;;5.13;1.48;;;22.90;58.30;;;;;;6285658;28;20024;-72
2021/09/26 15:14:22;;;;;;;6.85;1.00;;;22.90;58.30;;;;;;6286543;28;20043;-72
2021/09/26 15:17:23;;;;;;;6.05;1.25;;;22.90;58.30;;;;;;6288563;28;20025;-72
2021/09/26 15:20:26;;;;;;;9.68;1.33;;;22.90;58.30;;;;;;6284362;28;20028;-72
2021/09/26 15:23:26;;;;;;;7.25;1.90;;;22.90;58.30;;;;;;6281946;28;20111;-72
2021/09/26 15:26:29;;;;;;;4.28;1.45;;;22.90;58.40;;;;;;6286333;28;20442;-72
2021/09/26 15:29:30;;;;;;;15.75;1.70;;;22.90;58.30;;;;;;6289820;28;20313;-72
2021/09/26 15:32:30;;;;;;;9.02;1.70;;;22.90;58.30;;;;;;6293453;28;20034;-72
2021/09/26 15:35:31;;;;;;;18.67;1.77;;;23.00;58.40;;;;;;6294125;28;20028;-72
2021/09/26 15:38:31;;;;;;;13.90;1.98;;;22.90;58.30;;;;;;6294693;28;20494;-72
2021/09/26 15:41:32;;;;;;;10.88;1.50;;;22.90;58.30;;;;;;6293885;28;20584;-72
2021/09/26 15:44:32;;;;;;;14.05;2.13;;;22.90;58.30;;;;;;6294159;28;20041;-72
2021/09/26 15:47:33;;;;;;;19.33;2.15;;;22.90;58.30;;;;;;6294011;28;20028;-72
2021/09/26 15:50:37;;;;;;;11.40;1.77;;;22.90;58.30;;;;;;6293950;28;20427;-72
2021/09/26 15:53:40;;;;;;;9.63;2.05;;;22.90;58.30;;;;;;6293473;28;20157;-72
2021/09/26 15:56:41;;;;;;;15.68;1.95;;;22.90;58.30;;;;;;6293700;28;20021;-72
2021/09/26 15:59:41;;;;;;;9.20;1.50;;;22.90;58.30;;;;;;6293408;28;20545;-73